Aeroporto :
LOGIN :

Iscrizione | Disclaimer

   EN    FR    IT 

 










Sommario :    VFR   VFR Marginale   IFR   IFR Intensivo   IFR Molto Intensivo
Visibilità : 
Base nubi : 
>= 8 km
>= 3000ft
5 / 8 km
1000 / 3000 ft
1500m / 5 km
500 / 1000 ft
800 / 1500m
200 / 500 ft
< 800m
< 200 ft
Simboli :   Temporali  Nebbia  Neve Forte  Precipitazioni Forti  Vento > 20 kt
SIGMETs :   Varie  Temporali  Ghiacco  Turbolenza  Onda orograficha  Ceneri Vulcaniche






- Altitudine del aeroporto : 203 ft
- Codice IATA : XMJ


LFBM - Mont-De-Marsan

ULTIMO METAR :
  • 180700Z AUTO VRB03KT 9999 FEW045 SCT080 BKN098 20/15 Q1011 NOSIG

METARs OBSOLETI :
  • 180630Z AUTO 00000KT CAVOK 20/14 Q1011 NOSIG
  • 180600Z AUTO VRB02KT CAVOK 20/14 Q1011 NOSIG
  • 180530Z AUTO 12003KT 090V150 CAVOK 20/14 Q1010 NOSIG
  • 180500Z AUTO 08004KT CAVOK 19/14 Q1010 NOSIG
  • 180430Z AUTO 09003KT CAVOK 19/14 Q1010 NOSIG

TAF TAF LFBM
Valido dal 18 a 03 ore il 19 a 03 ore UTC


180200Z 1803/1903 12005KT CAVOK
BECMG 1817/1820 20010G20KT BKN050TCU
PROB40
TEMPO 1818/1820 3000 TSRA BKN060CB
BECMG 1901/1903 4000 BR BKN005



MetMap, La meteo Aeronautica in un colpo d'occhio ! - Copyright ORBIFLY Dicembre 2007 - Disclaimer

ORBIFLY MET'MAP TEAM :

Programmazione e sviluppo : Alexandra Zaïnal
Concezione : Baudouin d'Aumeries
Aiuto per la programmazione : Marc-Olivier Méhu
Supporto tecnico e logistico : Manuel Goepfert
Aiuto per la traduzione : Arnaldo La Scala

Contatto : metmap@orbifly.com




FONTI E CREDITI :

   NOAA